Terminal Aerodrome Forecast
Issued by NWS Billings, MT

Home | Current Version | Previous Version | Graphics & Text | Print | Product List | Glossary On
Versions: 1 2 3 4 5 6 7 8 9 10 11 12 13 14 15
000
FTUS45 KBYZ 160535
TAFMLS
TAF
KMLS 160535Z 1606/1706 29016KT P6SM BKN110
     FM161200 34012KT P6SM OVC060
     FM161800 09007KT P6SM OVC050=

USA.gov is the U.S. government's official web portal to all federal, state and local government web resources and services.